createdAt,value
2018-09-19T00:02:02.622Z,73.90
2018-09-19T00:04:30.273Z,73.90
2018-09-19T00:06:57.970Z,74.10
2018-09-19T00:09:25.552Z,73.70
2018-09-19T00:11:53.072Z,73.90
2018-09-19T00:14:20.602Z,74.30
2018-09-19T00:16:48.125Z,74.60
2018-09-19T00:19:15.898Z,75.00
2018-09-19T00:21:43.641Z,75.20
2018-09-19T00:24:11.195Z,75.40
2018-09-19T00:26:38.798Z,75.60
2018-09-19T00:29:06.725Z,75.80
2018-09-19T00:31:34.333Z,75.90
2018-09-19T00:34:01.868Z,75.90
2018-09-19T00:36:29.480Z,75.90
2018-09-19T00:38:57.557Z,76.50
2018-09-19T00:41:25.426Z,76.30
2018-09-19T00:43:53.006Z,76.90
2018-09-19T00:46:20.592Z,76.90
2018-09-19T00:48:48.147Z,76.90
2018-09-19T00:51:15.675Z,77.30
2018-09-19T00:53:43.553Z,77.30
2018-09-19T00:56:11.167Z,76.90
2018-09-19T00:58:38.989Z,76.90
2018-09-19T01:01:06.557Z,76.70
2018-09-19T01:03:34.209Z,77.30
2018-09-19T01:06:01.865Z,77.30
2018-09-19T01:08:29.645Z,77.60
2018-09-19T01:10:57.289Z,78.00
2018-09-19T01:13:25.054Z,78.60
2018-09-19T01:15:52.801Z,78.60
2018-09-19T01:18:20.727Z,79.10
2018-09-19T01:20:48.380Z,79.30
2018-09-19T01:23:16.016Z,79.10
2018-09-19T01:25:43.599Z,79.30
2018-09-19T01:28:11.217Z,79.30
2018-09-19T01:30:39.031Z,80.20
2018-09-19T01:33:06.647Z,80.20
2018-09-19T01:35:34.313Z,80.20
2018-09-19T01:38:01.898Z,80.20
2018-09-19T01:40:29.564Z,80.20
2018-09-19T01:42:57.167Z,80.40
2018-09-19T01:45:25.768Z,80.60
2018-09-19T01:47:53.437Z,81.00
2018-09-19T01:50:21.210Z,81.00
2018-09-19T01:52:48.767Z,81.00
2018-09-19T01:55:16.343Z,81.20
2018-09-19T01:57:43.878Z,81.20
2018-09-19T02:00:11.644Z,81.70
2018-09-19T02:02:39.397Z,81.90
2018-09-19T02:05:07.301Z,81.90
2018-09-19T02:07:34.849Z,82.70
2018-09-19T02:10:02.612Z,82.50
2018-09-19T02:12:30.260Z,82.10
2018-09-19T02:14:57.869Z,81.70
2018-09-19T02:17:25.444Z,81.40
2018-09-19T02:19:53.051Z,81.50
2018-09-19T02:22:20.757Z,81.50
2018-09-19T02:24:48.351Z,81.70
2018-09-19T02:27:15.977Z,81.90
2018-09-19T02:29:43.609Z,81.90
2018-09-19T02:32:11.328Z,82.30
2018-09-19T02:34:38.966Z,82.30
2018-09-19T02:37:06.541Z,82.50
2018-09-19T02:39:34.165Z,82.70
2018-09-19T02:42:02.021Z,82.70
2018-09-19T02:44:29.668Z,82.80
2018-09-19T02:46:57.410Z,83.00
2018-09-19T02:49:24.919Z,83.00
2018-09-19T02:51:57.003Z,83.40
2018-09-19T02:54:26.056Z,83.60
2018-09-19T02:56:53.926Z,84.00
2018-09-19T02:59:21.572Z,84.00
2018-09-19T03:01:49.115Z,84.10
2018-09-19T03:04:16.645Z,84.10
2018-09-19T03:06:44.181Z,84.00
2018-09-19T03:09:11.931Z,84.10
2018-09-19T03:11:39.604Z,84.00
2018-09-19T03:14:07.456Z,83.80
2018-09-19T03:16:35.115Z,84.10
2018-09-19T03:19:02.792Z,84.50
2018-09-19T03:21:30.545Z,84.90
2018-09-19T03:23:58.103Z,84.70
2018-09-19T03:26:25.756Z,85.10
2018-09-19T03:28:53.443Z,84.90
2018-09-19T03:31:20.994Z,84.70
2018-09-19T03:33:48.635Z,84.90
2018-09-19T03:36:16.149Z,85.10
2018-09-19T03:38:43.772Z,85.30
2018-09-19T03:41:11.437Z,85.50
2018-09-19T03:43:39.125Z,85.50
2018-09-19T03:46:06.967Z,85.60
2018-09-19T03:48:34.579Z,85.50
2018-09-19T03:51:02.254Z,85.80
2018-09-19T03:53:29.907Z,86.00
2018-09-19T03:55:57.724Z,86.20
2018-09-19T03:58:25.365Z,86.80
2018-09-19T04:00:53.251Z,86.80
2018-09-19T04:03:20.922Z,86.90
2018-09-19T04:05:48.456Z,86.90
2018-09-19T04:08:16.449Z,86.90
2018-09-19T04:10:43.956Z,87.10
2018-09-19T04:13:11.492Z,87.30
2018-09-19T04:15:39.060Z,87.10
2018-09-19T04:18:06.638Z,87.50
2018-09-19T04:20:34.513Z,89.00
2018-09-19T04:23:02.119Z,89.00
2018-09-19T04:25:29.758Z,89.40
2018-09-19T04:27:57.389Z,89.20
2018-09-19T04:30:24.912Z,89.40
2018-09-19T04:32:52.567Z,89.60
2018-09-19T04:35:20.104Z,89.40
2018-09-19T04:37:47.764Z,89.20
2018-09-19T04:40:15.426Z,89.00
2018-09-19T04:42:43.176Z,89.20
2018-09-19T04:45:10.904Z,89.20
2018-09-19T04:47:38.396Z,89.60
2018-09-19T04:50:06.490Z,89.90
2018-09-19T04:52:34.721Z,89.70
2018-09-19T04:55:03.266Z,89.60
2018-09-19T04:57:30.912Z,89.20
2018-09-19T04:59:58.459Z,89.20
2018-09-19T05:02:25.995Z,89.20
2018-09-19T05:04:53.693Z,89.40
2018-09-19T05:07:21.467Z,89.90
2018-09-19T05:09:49.012Z,90.10
2018-09-19T05:12:16.733Z,89.90
2018-09-19T05:14:44.455Z,90.10
2018-09-19T05:17:12.029Z,90.10
2018-09-19T05:19:39.628Z,90.10
2018-09-19T05:22:07.248Z,90.10
2018-09-19T05:24:35.218Z,90.10
2018-09-19T05:27:02.861Z,89.90
2018-09-19T05:29:30.446Z,89.90
2018-09-19T05:31:58.030Z,89.90
2018-09-19T05:34:26.623Z,89.60
2018-09-19T05:36:54.151Z,89.00
2018-09-19T05:39:21.790Z,88.80
2018-09-19T05:41:49.413Z,88.60
2018-09-19T05:44:17.092Z,88.80
2018-09-19T05:46:44.611Z,89.00
2018-09-19T05:49:12.224Z,89.40
2018-09-19T05:51:40.208Z,89.40
2018-09-19T05:54:07.882Z,89.60
2018-09-19T05:56:35.971Z,89.70
2018-09-19T05:59:03.553Z,89.40
2018-09-19T06:01:31.107Z,88.10
2018-09-19T06:03:58.694Z,85.30
2018-09-19T06:06:26.307Z,81.90
2018-09-19T06:08:54.077Z,78.00
2018-09-19T06:11:22.528Z,74.80
2018-09-19T06:13:50.145Z,70.40
2018-09-19T06:16:17.859Z,66.30
2018-09-19T06:18:45.630Z,62.70
2018-09-19T06:21:13.207Z,59.00
2018-09-19T06:23:40.740Z,55.70
2018-09-19T06:26:08.328Z,52.80
2018-09-19T06:28:35.950Z,50.20
2018-09-19T06:31:03.636Z,47.50
2018-09-19T06:33:31.202Z,44.90
2018-09-19T06:35:58.773Z,42.70
2018-09-19T06:38:26.538Z,41.10
2018-09-19T06:40:54.279Z,38.60
2018-09-19T06:43:21.661Z,36.80
2018-09-19T06:45:49.508Z,35.10
2018-09-19T06:48:17.133Z,33.30
2018-09-19T06:50:44.698Z,31.80
2018-09-19T06:53:12.311Z,29.90
2018-09-19T06:55:39.850Z,29.40
2018-09-19T06:58:07.496Z,28.70
2018-09-19T07:00:35.037Z,27.90
2018-09-19T07:03:03.264Z,26.80
2018-09-19T07:05:30.856Z,26.10
2018-09-19T07:07:58.567Z,25.20
2018-09-19T07:10:26.236Z,24.30
2018-09-19T07:12:53.823Z,23.20
2018-09-19T07:15:21.352Z,21.50
2018-09-19T07:17:48.969Z,21.20
2018-09-19T07:20:16.630Z,20.50
2018-09-19T07:22:44.228Z,19.30
2018-09-19T07:25:11.874Z,18.60
2018-09-19T07:27:39.378Z,17.90
2018-09-19T07:30:06.985Z,17.00
2018-09-19T07:32:34.509Z,16.50
2018-09-19T07:35:02.188Z,16.10
2018-09-19T07:37:29.752Z,15.50
2018-09-19T07:39:57.338Z,14.70
2018-09-19T07:42:24.925Z,14.30
2018-09-19T07:44:52.471Z,13.40
2018-09-19T07:47:20.137Z,13.10
2018-09-19T07:49:47.731Z,13.00
2018-09-19T07:52:15.305Z,12.60
2018-09-19T07:54:43.052Z,12.40
2018-09-19T07:57:10.785Z,12.10
2018-09-19T07:59:38.324Z,11.60
2018-09-19T08:02:06.003Z,11.40
2018-09-19T08:04:33.969Z,10.80
2018-09-19T08:07:01.504Z,10.50
2018-09-19T08:09:29.072Z,10.30
2018-09-19T08:11:56.699Z,10.60
2018-09-19T08:14:24.294Z,10.10
2018-09-19T08:16:52.199Z,9.90
2018-09-19T08:19:20.183Z,9.40
2018-09-19T08:21:48.034Z,9.50
2018-09-19T08:24:15.572Z,9.30
2018-09-19T08:26:43.154Z,9.40
2018-09-19T08:29:10.894Z,9.00
2018-09-19T08:31:38.642Z,9.60
2018-09-19T08:34:06.234Z,9.40
2018-09-19T08:36:33.870Z,9.20
2018-09-19T08:39:01.568Z,8.80
2018-09-19T08:41:29.181Z,8.20
2018-09-19T08:43:56.863Z,8.30
2018-09-19T08:46:24.416Z,8.30
2018-09-19T08:48:52.060Z,7.90
2018-09-19T08:51:19.637Z,7.60
2018-09-19T08:53:48.229Z,7.20
2018-09-19T08:56:16.059Z,7.20
2018-09-19T08:58:43.851Z,7.60
2018-09-19T09:01:11.602Z,7.80
2018-09-19T09:03:39.135Z,7.20
2018-09-19T09:06:06.830Z,7.40
2018-09-19T09:08:34.475Z,7.70
2018-09-19T09:11:02.022Z,8.10
2018-09-19T09:13:29.626Z,8.20
2018-09-19T09:15:57.295Z,8.30
2018-09-19T09:18:24.807Z,8.50
2018-09-19T09:20:52.337Z,8.00
2018-09-19T09:23:19.958Z,8.50
2018-09-19T09:25:47.612Z,8.10
2018-09-19T09:28:15.137Z,6.60
2018-09-19T09:30:42.747Z,7.60
2018-09-19T09:33:10.364Z,7.10
2018-09-19T09:35:37.916Z,7.80
2018-09-19T09:38:05.627Z,6.80
2018-09-19T09:40:33.184Z,6.80
2018-09-19T09:43:00.894Z,6.90
2018-09-19T09:45:28.499Z,6.30
2018-09-19T09:47:56.156Z,6.40
2018-09-19T09:50:23.754Z,6.90
2018-09-19T09:52:51.404Z,7.00
2018-09-19T09:55:19.130Z,7.50
2018-09-19T09:57:46.674Z,7.20
2018-09-19T10:00:18.851Z,7.60
2018-09-19T10:02:46.476Z,7.10
2018-09-19T10:05:14.207Z,6.60
2018-09-19T10:07:41.896Z,6.50
2018-09-19T10:10:09.497Z,7.10
2018-09-19T10:12:37.084Z,6.40
2018-09-19T10:15:04.947Z,6.60
2018-09-19T10:17:32.539Z,6.60
2018-09-19T10:20:00.174Z,6.90
2018-09-19T10:22:27.762Z,6.40
2018-09-19T10:24:55.348Z,6.10
2018-09-19T10:27:23.076Z,5.80
2018-09-19T10:29:50.624Z,5.20
2018-09-19T10:32:18.246Z,5.70
2018-09-19T10:34:46.556Z,5.50
2018-09-19T10:37:14.125Z,6.00
2018-09-19T10:39:41.884Z,6.50
2018-09-19T10:42:09.463Z,6.60
2018-09-19T10:44:37.044Z,6.80
2018-09-19T10:47:05.132Z,6.60
2018-09-19T10:49:32.758Z,5.70
2018-09-19T10:52:00.696Z,5.90
2018-09-19T10:54:28.796Z,5.30
2018-09-19T10:56:56.458Z,5.60
2018-09-19T10:59:24.136Z,5.20
2018-09-19T11:01:51.759Z,5.10
2018-09-19T11:04:19.458Z,5.00
2018-09-19T11:06:47.043Z,4.50
2018-09-19T11:09:14.740Z,4.70
2018-09-19T11:11:42.406Z,4.60
2018-09-19T11:14:10.051Z,4.70
2018-09-19T11:16:37.627Z,4.70
2018-09-19T11:19:05.340Z,5.30
2018-09-19T11:21:32.981Z,5.40
2018-09-19T11:24:00.624Z,5.70
2018-09-19T11:26:28.301Z,5.80
2018-09-19T11:28:55.921Z,5.50
2018-09-19T11:31:23.624Z,5.40
2018-09-19T11:33:51.403Z,5.20
2018-09-19T11:36:19.343Z,5.10
2018-09-19T11:38:46.993Z,5.30
2018-09-19T11:41:14.891Z,5.10
2018-09-19T11:43:42.448Z,5.30
2018-09-19T11:46:10.037Z,5.20
2018-09-19T11:48:37.684Z,5.40
2018-09-19T11:51:05.848Z,5.00
2018-09-19T11:53:33.418Z,4.60
2018-09-19T11:56:01.592Z,5.20
2018-09-19T11:58:29.861Z,5.10
2018-09-19T12:00:57.843Z,5.10
2018-09-19T12:03:25.888Z,5.60
2018-09-19T12:05:53.556Z,5.00
2018-09-19T12:08:21.376Z,5.30
2018-09-19T12:10:49.282Z,5.30
2018-09-19T12:13:16.920Z,5.50
2018-09-19T12:15:44.649Z,5.90
2018-09-19T12:18:12.185Z,5.50
2018-09-19T12:20:40.002Z,5.10
2018-09-19T12:23:07.526Z,5.10
2018-09-19T12:25:35.182Z,5.70
2018-09-19T12:28:02.715Z,5.50
2018-09-19T12:30:30.572Z,5.10
2018-09-19T12:32:58.563Z,5.20
2018-09-19T12:35:26.409Z,4.90
2018-09-19T12:37:54.034Z,5.20
2018-09-19T12:40:21.671Z,5.60
2018-09-19T12:42:49.240Z,5.60
2018-09-19T12:45:16.969Z,5.80
2018-09-19T12:47:44.639Z,5.80
2018-09-19T12:50:12.180Z,6.20
2018-09-19T12:52:39.998Z,6.60
2018-09-19T12:55:07.928Z,6.50
2018-09-19T12:57:35.679Z,6.60
2018-09-19T13:00:03.372Z,6.50
2018-09-19T13:02:31.088Z,6.90
2018-09-19T13:04:58.892Z,6.80
2018-09-19T13:07:26.885Z,6.80
2018-09-19T13:09:54.457Z,6.70
2018-09-19T13:12:22.041Z,6.70
2018-09-19T13:14:49.803Z,6.20
2018-09-19T13:17:17.497Z,7.00
2018-09-19T13:19:45.260Z,7.00
2018-09-19T13:22:12.844Z,6.60
2018-09-19T13:24:40.350Z,6.70
2018-09-19T13:27:07.940Z,6.70
2018-09-19T13:29:35.772Z,6.90
2018-09-19T13:32:03.421Z,7.30
2018-09-19T13:34:31.422Z,7.80
2018-09-19T13:36:58.964Z,7.60
2018-09-19T13:39:26.581Z,7.30
2018-09-19T13:41:54.232Z,7.70
2018-09-19T13:44:21.917Z,8.10
2018-09-19T13:46:49.450Z,9.00
2018-09-19T13:49:22.693Z,8.40
2018-09-19T13:51:50.266Z,8.90
2018-09-19T13:54:18.180Z,8.80
2018-09-19T13:56:45.739Z,9.30
2018-09-19T13:59:13.466Z,8.70
2018-09-19T14:01:41.089Z,8.80
2018-09-19T14:04:08.649Z,9.20
2018-09-19T14:06:36.308Z,9.50
2018-09-19T14:09:06.181Z,9.80
2018-09-19T14:11:33.983Z,9.80
2018-09-19T14:14:01.574Z,10.40
2018-09-19T14:16:29.323Z,10.00
2018-09-19T14:18:56.965Z,10.50
2018-09-19T14:21:24.491Z,9.70
2018-09-19T14:23:52.243Z,9.90
2018-09-19T14:26:19.910Z,10.40
2018-09-19T14:28:47.597Z,10.80
2018-09-19T14:31:15.182Z,11.00
2018-09-19T14:33:42.822Z,10.80
2018-09-19T14:36:10.433Z,11.40
2018-09-19T14:38:38.044Z,11.80
2018-09-19T14:41:05.654Z,12.00
2018-09-19T14:43:33.269Z,12.10
2018-09-19T14:46:00.817Z,12.20
2018-09-19T14:48:28.705Z,12.00
2018-09-19T14:50:56.274Z,11.90
2018-09-19T14:53:23.976Z,11.80
2018-09-19T14:55:51.897Z,11.90
2018-09-19T14:58:19.432Z,11.90
2018-09-19T15:00:47.135Z,11.90
2018-09-19T15:03:14.757Z,12.00
2018-09-19T15:05:42.420Z,12.50
2018-09-19T15:08:09.968Z,12.20
2018-09-19T15:10:37.660Z,12.40
2018-09-19T15:13:05.932Z,13.30
2018-09-19T15:15:33.655Z,13.70
2018-09-19T15:18:01.433Z,14.00
2018-09-19T15:20:29.316Z,13.70
2018-09-19T15:22:57.034Z,14.10
2018-09-19T15:25:24.761Z,13.80
2018-09-19T15:27:52.550Z,14.20
2018-09-19T15:30:20.185Z,15.00
2018-09-19T15:32:47.853Z,14.80
2018-09-19T15:35:16.601Z,15.30
2018-09-19T15:37:44.156Z,14.90
2018-09-19T15:40:12.296Z,15.10
2018-09-19T15:42:40.002Z,15.30
2018-09-19T15:45:07.749Z,15.50
2018-09-19T15:47:35.378Z,16.00
2018-09-19T15:50:03.037Z,16.60
2018-09-19T15:52:30.771Z,16.90
2018-09-19T15:54:58.323Z,17.60
2018-09-19T15:57:26.022Z,17.50
2018-09-19T15:59:53.854Z,18.50
2018-09-19T16:02:21.470Z,19.40
2018-09-19T16:04:49.085Z,19.00
2018-09-19T16:07:17.267Z,19.50
2018-09-19T16:09:44.838Z,20.10
2018-09-19T16:12:12.555Z,20.00
2018-09-19T16:14:40.468Z,20.40
2018-09-19T16:17:08.042Z,20.60
2018-09-19T16:19:35.676Z,21.00
2018-09-19T16:22:03.456Z,20.80
2018-09-19T16:24:31.030Z,21.30
2018-09-19T16:26:58.607Z,21.80
2018-09-19T16:29:26.248Z,21.90
2018-09-19T16:31:53.996Z,22.40
2018-09-19T16:34:21.660Z,22.60
2018-09-19T16:36:49.726Z,23.20
2018-09-19T16:39:17.399Z,23.30
2018-09-19T16:41:45.062Z,22.40
2018-09-19T16:44:12.971Z,23.20
2018-09-19T16:46:40.841Z,24.80
2018-09-19T16:49:09.096Z,25.20
2018-09-19T16:51:36.725Z,24.90
2018-09-19T16:54:04.336Z,25.50
2018-09-19T16:56:31.912Z,26.50
2018-09-19T16:58:59.434Z,25.20
2018-09-19T17:01:27.668Z,25.90
2018-09-19T17:03:55.765Z,26.30
2018-09-19T17:06:23.482Z,26.60
2018-09-19T17:08:51.036Z,27.90
2018-09-19T17:11:18.720Z,28.40
2018-09-19T17:13:46.566Z,29.90
2018-09-19T17:16:14.483Z,29.70
2018-09-19T17:18:42.150Z,30.90
2018-09-19T17:21:10.004Z,32.40
2018-09-19T17:23:37.676Z,33.10
2018-09-19T17:26:05.237Z,32.80
2018-09-19T17:28:33.254Z,33.70
2018-09-19T17:31:00.802Z,34.40
2018-09-19T17:33:28.666Z,35.40
2018-09-19T17:35:56.393Z,35.90
2018-09-19T17:38:24.037Z,36.50
2018-09-19T17:40:51.680Z,37.10
2018-09-19T17:43:19.250Z,38.20
2018-09-19T17:45:47.589Z,39.40
2018-09-19T17:48:15.490Z,39.70
2018-09-19T17:50:43.560Z,37.70
2018-09-19T17:53:11.226Z,39.40
2018-09-19T17:55:38.883Z,39.10
2018-09-19T17:58:06.552Z,40.60
2018-09-19T18:00:34.403Z,42.60
2018-09-19T18:03:02.406Z,42.60
2018-09-19T18:05:30.093Z,43.00
2018-09-19T18:07:57.650Z,43.50
2018-09-19T18:10:25.380Z,43.50
2018-09-19T18:12:53.050Z,43.00
2018-09-19T18:15:20.730Z,42.90
2018-09-19T18:17:48.635Z,43.50
2018-09-19T18:20:16.192Z,44.30
2018-09-19T18:22:43.850Z,44.30
2018-09-19T18:25:11.477Z,44.00
2018-09-19T18:27:39.175Z,45.90
2018-09-19T18:30:06.909Z,46.40
2018-09-19T18:32:34.993Z,47.30
2018-09-19T18:35:02.706Z,47.50
2018-09-19T18:37:30.294Z,47.90
2018-09-19T18:39:57.844Z,47.90
2018-09-19T18:42:25.432Z,48.40
2018-09-19T18:44:53.093Z,49.30
2018-09-19T18:47:20.759Z,50.50
2018-09-19T18:49:48.447Z,50.70
2018-09-19T18:52:16.025Z,51.10
2018-09-19T18:54:43.803Z,51.10
2018-09-19T18:57:11.464Z,51.10
2018-09-19T18:59:39.188Z,50.50
2018-09-19T19:02:06.760Z,51.30
2018-09-19T19:04:34.337Z,51.90
2018-09-19T19:07:01.951Z,52.30
2018-09-19T19:09:29.569Z,52.90
2018-09-19T19:11:57.129Z,54.00
2018-09-19T19:14:24.669Z,54.00
2018-09-19T19:16:52.377Z,54.60
2018-09-19T19:19:20.278Z,54.90
2018-09-19T19:21:47.828Z,55.10
2018-09-19T19:24:15.349Z,55.40
2018-09-19T19:26:42.974Z,55.70
2018-09-19T19:29:10.556Z,55.80
2018-09-19T19:31:38.116Z,55.80
2018-09-19T19:34:05.741Z,56.10
2018-09-19T19:36:33.795Z,56.60
2018-09-19T19:39:01.416Z,56.70
2018-09-19T19:41:29.087Z,56.70
2018-09-19T19:43:56.738Z,56.60
2018-09-19T19:46:24.434Z,56.60
2018-09-19T19:48:51.949Z,56.30
2018-09-19T19:51:19.653Z,56.90
2018-09-19T19:53:47.409Z,57.00
2018-09-19T19:56:15.093Z,57.50
2018-09-19T19:58:42.904Z,57.70
2018-09-19T20:01:10.498Z,57.70
2018-09-19T20:03:37.981Z,58.40
2018-09-19T20:06:05.838Z,58.40
2018-09-19T20:08:33.451Z,58.60
2018-09-19T20:11:00.952Z,58.70
2018-09-19T20:13:28.485Z,58.90
2018-09-19T20:15:55.977Z,58.90
2018-09-19T20:18:23.493Z,59.50
2018-09-19T20:20:51.090Z,60.30
2018-09-19T20:23:18.742Z,60.50
2018-09-19T20:25:46.221Z,60.70
2018-09-19T20:28:13.799Z,61.00
2018-09-19T20:30:41.312Z,61.20
2018-09-19T20:33:09.016Z,62.00
2018-09-19T20:35:36.545Z,62.20
2018-09-19T20:38:04.211Z,62.20
2018-09-19T20:40:31.789Z,62.20
2018-09-19T20:42:59.433Z,62.50
2018-09-19T20:45:27.338Z,63.10
2018-09-19T20:47:55.053Z,63.10
2018-09-19T20:50:22.724Z,63.30
2018-09-19T20:52:50.342Z,64.40
2018-09-19T20:55:17.892Z,64.80
2018-09-19T20:57:45.492Z,65.00
2018-09-19T21:00:13.026Z,65.30
2018-09-19T21:02:40.822Z,65.30
2018-09-19T21:05:08.743Z,65.90
2018-09-19T21:07:36.316Z,66.10
2018-09-19T21:10:04.124Z,66.30
2018-09-19T21:12:31.656Z,66.60
2018-09-19T21:14:59.343Z,66.80
2018-09-19T21:17:26.990Z,67.00
2018-09-19T21:19:54.665Z,67.20
2018-09-19T21:22:22.444Z,67.20
2018-09-19T21:24:50.061Z,67.40
2018-09-19T21:27:17.741Z,67.60
2018-09-19T21:29:45.279Z,67.90
2018-09-19T21:32:12.893Z,68.30
2018-09-19T21:34:40.463Z,68.30
2018-09-19T21:37:07.973Z,68.50
2018-09-19T21:39:35.514Z,69.10
2018-09-19T21:42:03.012Z,69.60
2018-09-19T21:44:30.581Z,69.80
2018-09-19T21:46:58.170Z,69.80
2018-09-19T21:49:25.746Z,70.20
2018-09-19T21:51:53.453Z,70.50
2018-09-19T21:54:21.128Z,70.90
2018-09-19T21:56:48.802Z,71.30
2018-09-19T21:59:16.408Z,71.80
2018-09-19T22:01:43.989Z,72.20
2018-09-19T22:04:11.668Z,72.60
2018-09-19T22:06:39.773Z,72.80
2018-09-19T22:09:09.660Z,72.80
2018-09-19T22:11:38.153Z,72.60
2018-09-19T22:14:06.105Z,72.40
2018-09-19T22:16:33.986Z,72.20
2018-09-19T22:19:01.593Z,72.40
2018-09-19T22:21:29.384Z,72.60
2018-09-19T22:23:56.923Z,73.00
2018-09-19T22:26:24.735Z,73.20
2018-09-19T22:28:52.478Z,73.50
2018-09-19T22:31:20.131Z,73.90
2018-09-19T22:33:47.837Z,73.90
2018-09-19T22:36:15.360Z,73.70
2018-09-19T22:38:43.028Z,74.10
2018-09-19T22:41:10.567Z,74.60
2018-09-19T22:43:38.717Z,75.00
2018-09-19T22:46:06.738Z,75.40
2018-09-19T22:48:34.385Z,75.40
2018-09-19T22:51:02.425Z,75.90
2018-09-19T22:53:30.450Z,76.10
2018-09-19T22:55:57.940Z,76.10
2018-09-19T22:58:25.593Z,76.30
2018-09-19T23:00:53.221Z,76.30
2018-09-19T23:03:20.891Z,76.70
2018-09-19T23:05:48.547Z,76.90
2018-09-19T23:08:16.089Z,77.10
2018-09-19T23:10:43.769Z,77.10
2018-09-19T23:13:11.328Z,77.60
2018-09-19T23:16:16.546Z,78.00
2018-09-19T23:18:44.103Z,78.20
2018-09-19T23:21:11.760Z,78.70
2018-09-19T23:23:39.452Z,78.60
2018-09-19T23:26:07.253Z,78.60
2018-09-19T23:28:34.998Z,78.90
2018-09-19T23:31:02.782Z,79.50
2018-09-19T23:33:30.373Z,79.30
2018-09-19T23:35:57.981Z,79.50
2018-09-19T23:38:25.678Z,79.50
2018-09-19T23:40:53.418Z,79.90
2018-09-19T23:43:21.139Z,80.60
2018-09-19T23:45:49.027Z,80.80
2018-09-19T23:48:16.628Z,80.80
2018-09-19T23:50:44.348Z,81.50
2018-09-19T23:53:12.312Z,81.70
2018-09-19T23:55:40.204Z,81.70
2018-09-19T23:58:07.963Z,81.90
